Time;durP1;ratioP1;P1;durP2;ratioP2;P2;SDS_P1;SDS_P2;PMS_P1;PMS_P2;Temp;Humidity;BMP_temperature;BMP_pressure;BME280_temperature;BME280_humidity;BME280_pressure;Samples;Min_cycle;Max_cycle;Signal;HPM_P1;HPM_P2
2020/12/20 00:01:03;;;;;;;3.53;2.50;;;9.00;99.90;;;;;;4972201;28;20864;-77
2020/12/20 00:03:29;;;;;;;3.60;2.27;;;8.90;99.90;;;;;;4972412;28;20492;-77
2020/12/20 00:05:55;;;;;;;3.33;2.13;;;8.80;99.90;;;;;;4972012;28;20848;-77
2020/12/20 00:08:23;;;;;;;2.60;1.93;;;8.80;99.90;;;;;;4975060;28;20411;-76
2020/12/20 00:10:48;;;;;;;4.77;2.80;;;8.80;99.90;;;;;;4968344;28;20216;-77
2020/12/20 00:13:17;;;;;;;6.60;2.97;;;8.70;99.90;;;;;;4966976;28;20964;-77
2020/12/20 00:15:46;;;;;;;2.60;2.40;;;8.70;99.90;;;;;;4959120;28;20221;-78
2020/12/20 00:18:11;;;;;;;5.13;2.80;;;8.70;99.90;;;;;;4960340;28;20432;-77
2020/12/20 00:20:37;;;;;;;5.00;2.33;;;8.60;99.90;;;;;;4972892;28;20985;-77
2020/12/20 00:23:03;;;;;;;2.43;2.13;;;8.50;99.90;;;;;;4963023;28;20314;-78
2020/12/20 00:25:29;;;;;;;4.30;2.33;;;8.60;99.90;;;;;;4957704;28;20452;-77
2020/12/20 00:27:54;;;;;;;4.53;2.00;;;8.70;99.90;;;;;;4972147;28;20175;-77
2020/12/20 00:30:20;;;;;;;2.27;2.07;;;8.70;99.90;;;;;;4956223;28;20222;-77
2020/12/20 00:32:46;;;;;;;2.33;2.13;;;8.70;99.90;;;;;;4974381;28;20283;-77
2020/12/20 00:35:12;;;;;;;3.83;2.47;;;8.60;99.90;;;;;;4974452;28;20209;-77
2020/12/20 00:37:37;;;;;;;3.60;2.30;;;8.60;99.90;;;;;;4966228;28;20415;-77
2020/12/20 00:40:04;;;;;;;4.30;1.83;;;8.60;99.90;;;;;;4955718;28;20218;-78
2020/12/20 00:42:30;;;;;;;3.70;2.07;;;8.60;99.90;;;;;;4971149;28;20188;-77
2020/12/20 00:44:56;;;;;;;3.90;1.93;;;8.60;99.90;;;;;;4969505;28;20444;-78
2020/12/20 00:47:21;;;;;;;2.00;1.80;;;8.50;99.90;;;;;;4955925;28;20995;-78
2020/12/20 00:49:47;;;;;;;4.50;2.20;;;8.50;99.90;;;;;;4965961;28;20711;-77
2020/12/20 00:52:13;;;;;;;3.47;2.17;;;8.50;99.90;;;;;;4967397;28;20279;-77
2020/12/20 00:54:39;;;;;;;3.93;1.77;;;8.50;99.90;;;;;;4968433;28;20220;-78
2020/12/20 00:57:05;;;;;;;2.20;1.90;;;8.50;99.90;;;;;;4955983;28;20426;-77
2020/12/20 00:59:31;;;;;;;7.87;3.33;;;8.50;99.90;;;;;;4963478;28;20561;-77
2020/12/20 01:01:57;;;;;;;3.23;2.93;;;8.50;99.90;;;;;;4962793;28;20273;-78
2020/12/20 01:04:23;;;;;;;2.03;1.83;;;8.50;99.90;;;;;;4970511;28;20175;-77
2020/12/20 01:06:53;;;;;;;3.23;2.20;;;8.60;99.90;;;;;;4973728;28;20524;-77
2020/12/20 01:09:19;;;;;;;4.80;2.47;;;8.60;99.90;;;;;;4974403;28;20215;-77
2020/12/20 01:11:44;;;;;;;2.50;1.90;;;8.60;99.90;;;;;;4973591;28;20440;-77
2020/12/20 01:14:10;;;;;;;2.90;2.10;;;8.60;99.90;;;;;;4974616;28;20226;-77
2020/12/20 01:16:36;;;;;;;2.30;1.90;;;8.50;99.90;;;;;;4973221;28;20583;-77
2020/12/20 01:19:02;;;;;;;8.03;2.30;;;8.50;99.90;;;;;;4974945;28;20196;-77
2020/12/20 01:21:28;;;;;;;2.43;1.70;;;8.50;99.90;;;;;;4974609;28;20208;-77
2020/12/20 01:23:53;;;;;;;3.77;2.30;;;8.50;99.90;;;;;;4974952;28;20485;-77
2020/12/20 01:26:21;;;;;;;3.57;1.93;;;8.50;99.90;;;;;;4974348;28;20237;-77
2020/12/20 01:28:47;;;;;;;3.00;2.20;;;8.50;99.90;;;;;;4973551;28;20171;-77
2020/12/20 01:31:14;;;;;;;4.20;2.00;;;8.60;99.90;;;;;;4974046;28;20851;-77
2020/12/20 01:33:40;;;;;;;3.30;2.23;;;8.70;99.90;;;;;;4974774;28;20178;-77
2020/12/20 01:36:11;;;;;;;3.27;1.70;;;8.80;99.90;;;;;;4974447;28;20495;-77
2020/12/20 01:38:38;;;;;;;2.73;1.70;;;8.90;99.90;;;;;;4974914;28;20922;-77
2020/12/20 01:41:06;;;;;;;3.67;2.23;;;8.90;99.90;;;;;;4972934;28;20464;-77
2020/12/20 01:43:49;;;;;;;6.60;2.20;;;8.90;99.90;;;;;;4974249;28;20429;-77
2020/12/20 01:46:18;;;;;;;4.67;1.87;;;9.00;99.90;;;;;;4973877;28;20914;-77
2020/12/20 01:48:45;;;;;;;5.90;2.63;;;9.00;99.90;;;;;;4974522;28;20453;-77
2020/12/20 01:51:11;;;;;;;3.13;2.13;;;9.00;99.90;;;;;;4972681;28;20470;-77
2020/12/20 01:53:38;;;;;;;4.37;2.50;;;9.00;99.90;;;;;;4972179;28;20425;-78
2020/12/20 01:56:05;;;;;;;4.33;1.80;;;9.00;99.90;;;;;;4973589;28;20458;-78
2020/12/20 01:58:36;;;;;;;2.53;2.17;;;9.10;99.90;;;;;;4972480;28;20522;-78
2020/12/20 02:01:06;;;;;;;5.07;2.80;;;9.30;99.90;;;;;;4973285;28;20469;-77
2020/12/20 02:03:32;;;;;;;3.13;2.10;;;9.30;99.90;;;;;;4972239;28;20431;-78
2020/12/20 02:05:58;;;;;;;3.20;2.17;;;9.30;99.90;;;;;;4985329;28;20848;-78
2020/12/20 02:08:27;;;;;;;2.93;1.80;;;9.30;99.90;;;;;;4977039;28;20425;-77
2020/12/20 02:11:13;;;;;;;3.50;2.27;;;9.30;99.90;;;;;;4965684;28;20467;-77
2020/12/20 02:13:49;;;;;;;4.47;2.70;;;9.30;99.90;;;;;;4973231;28;20426;-78
2020/12/20 02:16:17;;;;;;;2.40;2.20;;;9.20;99.90;;;;;;4971650;28;20456;-78
2020/12/20 02:18:43;;;;;;;2.83;2.50;;;9.10;99.90;;;;;;4972012;28;20452;-78
2020/12/20 02:21:18;;;;;;;2.90;1.80;;;9.00;99.90;;;;;;4972584;28;20519;-76
2020/12/20 02:23:50;;;;;;;2.00;1.50;;;8.90;99.90;;;;;;4972047;28;20206;-76
2020/12/20 02:26:17;;;;;;;2.87;1.97;;;8.80;99.90;;;;;;4972948;28;20561;-76
2020/12/20 02:28:43;;;;;;;2.63;2.03;;;8.70;99.90;;;;;;4973197;28;20515;-77
2020/12/20 02:31:08;;;;;;;8.60;3.20;;;8.60;99.90;;;;;;4972820;28;20561;-77
2020/12/20 02:33:34;;;;;;;5.10;3.07;;;8.60;99.90;;;;;;4973473;28;20468;-77
2020/12/20 02:36:00;;;;;;;7.07;3.33;;;8.60;99.90;;;;;;4972977;28;20217;-77
2020/12/20 02:38:28;;;;;;;4.80;2.65;;;8.60;99.90;;;;;;4971858;28;20539;-77
2020/12/20 02:40:56;;;;;;;2.58;2.38;;;8.60;99.90;;;;;;4971178;28;20260;-77
2020/12/20 02:43:21;;;;;;;6.10;2.90;;;8.60;99.90;;;;;;4973168;28;20216;-77
2020/12/20 02:45:47;;;;;;;8.50;2.90;;;8.60;99.90;;;;;;4972800;28;20691;-77
2020/12/20 02:48:13;;;;;;;3.70;2.77;;;8.60;99.90;;;;;;4971961;28;20188;-77
2020/12/20 02:50:38;;;;;;;4.50;2.40;;;8.50;99.90;;;;;;4972386;28;20322;-77
2020/12/20 02:53:04;;;;;;;2.83;2.23;;;8.50;99.90;;;;;;4971662;28;20500;-77
2020/12/20 02:55:30;;;;;;;4.30;2.40;;;8.40;99.90;;;;;;4972530;28;20209;-77
2020/12/20 02:57:56;;;;;;;5.43;1.93;;;8.40;99.90;;;;;;4973253;28;20273;-77
2020/12/20 03:00:22;;;;;;;2.83;2.10;;;8.40;99.90;;;;;;4970904;28;20442;-77
2020/12/20 03:02:48;;;;;;;4.50;2.25;;;8.40;99.90;;;;;;4973085;28;20196;-77
2020/12/20 03:05:14;;;;;;;2.97;2.27;;;8.50;99.90;;;;;;4972372;28;20224;-77
2020/12/20 03:07:40;;;;;;;3.23;1.90;;;8.60;99.90;;;;;;4973043;28;20523;-77
2020/12/20 03:10:06;;;;;;;3.10;2.00;;;8.70;99.90;;;;;;4972964;28;20454;-76
2020/12/20 03:12:32;;;;;;;3.67;1.73;;;8.80;99.90;;;;;;4972931;28;20921;-78
2020/12/20 03:14:58;;;;;;;2.00;1.70;;;8.90;99.90;;;;;;4972165;28;20290;-78
2020/12/20 03:17:23;;;;;;;3.30;1.90;;;8.90;99.90;;;;;;4972396;28;20179;-78
2020/12/20 03:19:49;;;;;;;1.60;1.40;;;9.00;99.90;;;;;;4972268;28;20353;-78
2020/12/20 03:22:17;;;;;;;2.83;1.63;;;9.00;99.90;;;;;;4972063;28;20235;-78
2020/12/20 03:24:43;;;;;;;2.00;1.53;;;9.10;99.90;;;;;;4972120;28;20247;-77
2020/12/20 03:27:09;;;;;;;4.93;2.73;;;9.10;99.90;;;;;;4972913;28;20654;-77
2020/12/20 03:29:35;;;;;;;2.10;1.60;;;9.20;99.90;;;;;;4972253;28;20248;-77
2020/12/20 03:32:01;;;;;;;2.67;1.70;;;9.20;99.90;;;;;;4972605;28;20220;-77
2020/12/20 03:34:27;;;;;;;4.50;1.90;;;9.20;99.90;;;;;;4972377;28;20221;-77
2020/12/20 03:36:52;;;;;;;6.20;1.97;;;9.30;99.90;;;;;;4972581;28;20415;-77
2020/12/20 03:39:18;;;;;;;2.90;1.90;;;9.30;99.90;;;;;;4971073;28;20171;-77
2020/12/20 03:41:44;;;;;;;5.53;2.30;;;9.30;99.90;;;;;;4971565;28;20210;-77
2020/12/20 03:44:10;;;;;;;2.60;2.23;;;9.30;99.90;;;;;;4972309;28;20630;-77
2020/12/20 03:46:36;;;;;;;3.80;2.00;;;9.40;99.90;;;;;;4973101;28;20168;-77
2020/12/20 03:49:02;;;;;;;5.10;2.80;;;9.40;99.90;;;;;;4972921;28;20421;-77
2020/12/20 03:51:28;;;;;;;5.10;1.97;;;9.40;99.90;;;;;;4971361;28;20225;-77
2020/12/20 03:53:53;;;;;;;3.60;2.00;;;9.40;99.90;;;;;;4976580;28;20417;-77
2020/12/20 03:56:19;;;;;;;3.27;2.10;;;9.50;99.90;;;;;;4975933;28;20213;-77
2020/12/20 03:58:45;;;;;;;3.63;2.43;;;9.50;99.90;;;;;;4980272;28;20190;-77
2020/12/20 04:01:10;;;;;;;3.97;2.30;;;9.50;99.90;;;;;;4976089;28;20485;-77
2020/12/20 04:03:36;;;;;;;4.90;2.70;;;9.40;99.90;;;;;;4975676;28;20176;-77
2020/12/20 04:06:02;;;;;;;4.43;3.17;;;9.40;99.90;;;;;;4975778;28;20226;-77
2020/12/20 04:08:28;;;;;;;2.50;2.30;;;9.40;99.90;;;;;;4976028;28;20233;-77
2020/12/20 04:10:53;;;;;;;4.40;3.20;;;9.40;99.90;;;;;;4975198;28;20466;-77
2020/12/20 04:13:19;;;;;;;11.90;3.70;;;9.30;99.90;;;;;;4974399;28;20214;-77
2020/12/20 04:15:45;;;;;;;3.67;3.20;;;9.20;99.90;;;;;;4975284;28;20213;-76
2020/12/20 04:18:10;;;;;;;4.90;3.50;;;9.10;99.90;;;;;;4975796;28;20660;-77
2020/12/20 04:20:36;;;;;;;4.10;3.70;;;8.90;99.90;;;;;;4975513;28;20697;-77
2020/12/20 04:23:02;;;;;;;5.27;3.53;;;8.90;99.90;;;;;;4975697;28;20210;-77
2020/12/20 04:25:28;;;;;;;6.10;3.73;;;8.80;99.90;;;;;;4973580;28;20757;-77
2020/12/20 04:27:53;;;;;;;4.90;3.80;;;8.80;99.90;;;;;;4975865;28;20424;-77
2020/12/20 04:30:19;;;;;;;3.97;3.20;;;8.80;99.90;;;;;;4975210;28;20222;-77
2020/12/20 04:32:45;;;;;;;6.50;3.23;;;8.70;99.90;;;;;;4975336;28;20194;-77
2020/12/20 04:35:10;;;;;;;3.50;3.00;;;8.80;99.90;;;;;;4975523;28;20299;-77
2020/12/20 04:37:36;;;;;;;4.63;3.73;;;8.80;99.90;;;;;;4975403;28;20187;-78
2020/12/20 04:40:06;;;;;;;5.10;4.00;;;8.90;99.90;;;;;;4974219;28;20219;-78
2020/12/20 04:42:32;;;;;;;5.60;3.83;;;8.80;99.90;;;;;;4973552;28;20187;-77
2020/12/20 04:44:58;;;;;;;3.73;2.80;;;8.70;99.90;;;;;;4973147;28;21187;-78
2020/12/20 04:47:24;;;;;;;3.80;2.80;;;8.80;99.90;;;;;;4975317;28;20422;-78
2020/12/20 04:49:52;;;;;;;5.20;2.77;;;8.80;99.90;;;;;;4974371;28;20221;-78
2020/12/20 04:52:19;;;;;;;2.83;2.53;;;8.80;99.90;;;;;;4973564;28;20453;-77
2020/12/20 04:54:45;;;;;;;4.60;2.33;;;8.80;99.90;;;;;;4974385;28;20488;-77
2020/12/20 04:57:15;;;;;;;3.50;2.30;;;8.90;99.90;;;;;;4974827;28;20499;-77
2020/12/20 04:59:41;;;;;;;3.47;2.73;;;8.90;99.90;;;;;;4972879;28;20456;-78
2020/12/20 05:02:08;;;;;;;2.50;2.00;;;8.90;99.90;;;;;;4974714;28;20446;-77
2020/12/20 05:04:36;;;;;;;2.87;1.80;;;8.90;99.90;;;;;;4974159;28;20476;-77
2020/12/20 05:07:03;;;;;;;3.30;2.80;;;9.00;99.90;;;;;;4975516;28;20431;-77
2020/12/20 05:09:29;;;;;;;3.97;2.10;;;9.10;99.90;;;;;;4974938;28;20464;-77
2020/12/20 05:11:54;;;;;;;7.83;2.33;;;9.10;99.90;;;;;;4975489;28;20437;-77
2020/12/20 05:14:30;;;;;;;3.80;2.03;;;9.20;99.90;;;;;;4975197;28;20750;-77
2020/12/20 05:16:56;;;;;;;3.13;1.90;;;9.30;99.90;;;;;;4975684;28;20164;-77
2020/12/20 05:19:33;;;;;;;5.13;2.73;;;9.40;99.90;;;;;;4974718;28;20415;-76
2020/12/20 05:22:16;;;;;;;5.87;2.20;;;9.40;99.90;;;;;;4973744;28;20250;-77
2020/12/20 05:24:44;;;;;;;3.03;2.60;;;9.50;99.90;;;;;;4972842;28;20446;-77
2020/12/20 05:27:35;;;;;;;3.67;2.43;;;9.50;99.90;;;;;;4974881;28;20417;-77
2020/12/20 05:30:15;;;;;;;2.90;2.50;;;9.40;99.90;;;;;;4972422;28;20488;-76
2020/12/20 05:32:43;;;;;;;9.20;3.27;;;9.50;99.90;;;;;;4973761;28;20441;-76
2020/12/20 05:35:11;;;;;;;5.77;3.17;;;9.50;99.90;;;;;;4974576;28;20481;-77
2020/12/20 05:37:38;;;;;;;5.60;2.27;;;9.50;99.90;;;;;;4974891;28;20440;-77
2020/12/20 05:40:06;;;;;;;5.83;2.47;;;9.50;99.90;;;;;;4973736;28;20488;-77
2020/12/20 05:42:31;;;;;;;3.80;2.67;;;9.50;99.90;;;;;;4973541;28;20480;-77
2020/12/20 05:45:11;;;;;;;4.60;2.27;;;9.50;99.90;;;;;;4974906;28;20478;-76
2020/12/20 05:47:38;;;;;;;2.83;2.20;;;9.40;99.90;;;;;;4973952;28;20194;-77
2020/12/20 05:50:05;;;;;;;3.87;2.20;;;9.40;99.90;;;;;;4973647;28;20565;-78
2020/12/20 05:52:32;;;;;;;4.27;2.30;;;9.40;99.90;;;;;;4973855;28;20841;-77
2020/12/20 05:54:57;;;;;;;7.03;2.30;;;9.40;99.90;;;;;;4973534;28;20884;-77
2020/12/20 05:57:24;;;;;;;3.27;2.50;;;9.50;99.90;;;;;;4976670;28;20421;-76
2020/12/20 05:59:51;;;;;;;7.10;2.43;;;9.50;99.90;;;;;;4973722;28;20582;-77
2020/12/20 06:02:18;;;;;;;3.50;2.00;;;9.50;99.90;;;;;;4974165;28;20980;-77
2020/12/20 06:04:45;;;;;;;7.23;2.20;;;9.50;99.90;;;;;;4973724;28;20529;-77
2020/12/20 06:07:13;;;;;;;3.90;2.00;;;9.50;99.90;;;;;;4973957;28;20428;-77
2020/12/20 06:09:54;;;;;;;3.83;1.70;;;9.50;99.90;;;;;;4972653;28;20474;-78
2020/12/20 06:12:23;;;;;;;6.23;2.30;;;9.50;99.90;;;;;;4972317;28;20466;-77
2020/12/20 06:14:50;;;;;;;5.00;2.57;;;9.60;99.90;;;;;;4972460;28;20550;-78
2020/12/20 06:17:18;;;;;;;8.23;2.73;;;9.50;99.90;;;;;;4973958;28;20951;-78
2020/12/20 06:19:53;;;;;;;5.17;2.50;;;9.50;99.90;;;;;;4972824;28;20472;-78
2020/12/20 06:22:20;;;;;;;4.10;2.77;;;9.40;99.90;;;;;;4971752;28;20462;-78
2020/12/20 06:24:48;;;;;;;4.73;2.70;;;9.50;99.90;;;;;;4972757;28;20543;-77
2020/12/20 06:27:16;;;;;;;4.53;2.10;;;9.50;99.90;;;;;;4972412;28;20445;-77
2020/12/20 06:29:50;;;;;;;5.13;2.07;;;9.50;99.90;;;;;;4961710;28;20529;-78
2020/12/20 06:32:20;;;;;;;5.90;2.00;;;9.60;99.90;;;;;;4971567;28;20860;-77
2020/12/20 06:34:47;;;;;;;5.13;2.33;;;9.80;99.90;;;;;;4956247;28;20530;-77
2020/12/20 06:37:16;;;;;;;5.60;2.07;;;9.90;99.90;;;;;;4977533;28;20423;-77
2020/12/20 06:39:41;;;;;;;5.20;1.97;;;9.90;99.90;;;;;;4959546;28;20549;-78
2020/12/20 06:42:08;;;;;;;4.73;1.67;;;9.80;99.90;;;;;;4969471;28;20532;-77
2020/12/20 06:44:33;;;;;;;5.93;2.30;;;9.90;99.90;;;;;;4970676;28;20761;-77
2020/12/20 06:46:59;;;;;;;6.30;1.70;;;9.80;99.90;;;;;;4957609;28;20525;-78
2020/12/20 06:49:42;;;;;;;3.70;2.37;;;9.70;99.90;;;;;;4967610;28;20227;-77
2020/12/20 06:52:17;;;;;;;5.00;1.70;;;9.70;99.90;;;;;;4953672;28;20437;-77
2020/12/20 06:54:59;;;;;;;4.23;1.47;;;9.70;99.90;;;;;;4955772;28;20457;-76
2020/12/20 06:57:25;;;;;;;6.90;2.00;;;9.70;99.90;;;;;;4954825;28;20415;-77
2020/12/20 06:59:51;;;;;;;3.60;2.10;;;9.70;99.90;;;;;;4972708;28;20457;-77
2020/12/20 07:02:47;;;;;;;5.30;1.93;;;9.80;99.90;;;;;;4973429;28;20203;-76
2020/12/20 07:05:35;;;;;;;4.07;1.90;;;9.70;99.90;;;;;;4961938;28;20209;-76
2020/12/20 07:08:19;;;;;;;6.60;2.00;;;9.70;99.90;;;;;;4972375;28;20421;-77
2020/12/20 07:10:47;;;;;;;4.17;1.83;;;9.70;99.90;;;;;;4970832;28;20876;-76
2020/12/20 07:13:15;;;;;;;6.20;2.80;;;9.70;99.90;;;;;;4973101;28;20476;-77
2020/12/20 07:15:48;;;;;;;11.10;2.30;;;9.70;99.90;;;;;;4971683;28;20986;-77
2020/12/20 07:18:59;;;;;;;4.15;2.55;;;9.70;99.90;;;;;;4970706;28;20474;-77
2020/12/20 07:21:28;;;;;;;3.63;1.93;;;9.60;99.90;;;;;;4919045;29;20308;-78
2020/12/20 07:24:03;;;;;;;4.47;2.20;;;9.60;99.90;;;;;;4965400;28;20448;-77
2020/12/20 07:26:29;;;;;;;5.77;2.20;;;9.60;99.90;;;;;;4970508;28;20513;-77
2020/12/20 07:29:02;;;;;;;6.00;2.40;;;9.60;99.90;;;;;;4956459;28;20428;-77
2020/12/20 07:31:29;;;;;;;4.63;2.10;;;9.60;99.90;;;;;;4970739;28;20887;-78
2020/12/20 07:33:55;;;;;;;6.60;2.57;;;9.60;99.90;;;;;;4971881;28;20438;-77
2020/12/20 07:36:21;;;;;;;2.87;1.40;;;9.60;99.90;;;;;;4970993;28;20459;-78
2020/12/20 07:38:48;;;;;;;3.73;2.30;;;9.60;99.90;;;;;;4970718;28;20422;-77
2020/12/20 07:41:16;;;;;;;6.90;2.00;;;9.70;99.90;;;;;;4970887;28;20456;-78
2020/12/20 07:43:43;;;;;;;8.73;3.10;;;9.60;99.90;;;;;;4968346;28;20772;-77
2020/12/20 07:46:12;;;;;;;9.65;2.65;;;9.60;99.90;;;;;;4950838;28;20469;-77
2020/12/20 07:48:38;;;;;;;3.00;2.37;;;9.50;99.90;;;;;;4959525;28;20177;-77
2020/12/20 07:51:11;;;;;;;4.20;2.30;;;9.60;99.90;;;;;;4969168;28;20468;-77
2020/12/20 07:53:43;;;;;;;6.47;2.77;;;9.50;99.90;;;;;;4971151;28;20418;-77
2020/12/20 07:56:09;;;;;;;5.72;2.53;;;9.50;99.90;;;;;;4975432;28;20545;-77
2020/12/20 07:58:35;;;;;;;6.80;2.23;;;9.60;99.90;;;;;;4972666;28;20641;-76
2020/12/20 08:01:07;;;;;;;4.97;2.40;;;9.60;99.90;;;;;;4971925;28;20587;-76
2020/12/20 08:03:33;;;;;;;7.37;3.10;;;9.60;99.90;;;;;;4971000;28;20477;-77
2020/12/20 08:06:17;;;;;;;10.43;2.80;;;9.60;99.90;;;;;;4971790;28;21159;-76
2020/12/20 08:08:44;;;;;;;8.73;2.50;;;9.60;99.90;;;;;;4970090;28;20568;-77
2020/12/20 08:11:26;;;;;;;8.65;2.60;;;9.70;99.90;;;;;;4971482;28;20490;-76
2020/12/20 08:13:58;;;;;;;5.83;2.53;;;9.70;99.90;;;;;;4972570;28;20176;-77
2020/12/20 08:16:34;;;;;;;6.50;3.20;;;9.80;99.90;;;;;;4971895;28;20538;-77
2020/12/20 08:19:04;;;;;;;7.43;2.73;;;9.90;99.90;;;;;;4965991;28;20412;-77
2020/12/20 08:21:56;;;;;;;6.10;2.20;;;9.90;99.90;;;;;;4971411;28;20453;-77
2020/12/20 08:24:22;;;;;;;6.23;2.67;;;9.80;99.90;;;;;;4955680;28;20871;-77
2020/12/20 08:26:49;;;;;;;6.50;2.40;;;9.90;99.90;;;;;;4971675;28;20512;-77
2020/12/20 08:29:21;;;;;;;4.87;3.17;;;9.80;99.90;;;;;;4971223;28;20424;-76
2020/12/20 08:31:47;;;;;;;6.27;2.83;;;9.80;99.90;;;;;;4970904;28;20496;-77
2020/12/20 08:34:15;;;;;;;6.50;2.23;;;9.90;99.90;;;;;;4969230;28;20428;-76
2020/12/20 08:36:46;;;;;;;7.20;2.80;;;10.00;99.90;;;;;;4969695;28;20424;-77
2020/12/20 08:39:13;;;;;;;8.23;2.20;;;9.90;99.90;;;;;;4974461;28;20464;-77
2020/12/20 08:41:39;;;;;;;4.60;2.10;;;10.00;99.90;;;;;;4974333;28;20238;-77
2020/12/20 08:44:08;;;;;;;5.30;2.87;;;10.00;99.90;;;;;;4974456;28;20444;-77
2020/12/20 08:46:37;;;;;;;6.60;3.27;;;10.10;99.90;;;;;;4974499;28;20175;-77
2020/12/20 08:49:29;;;;;;;6.03;2.20;;;10.00;99.90;;;;;;4974763;28;20836;-77
2020/12/20 08:52:13;;;;;;;5.60;2.60;;;10.00;99.90;;;;;;4966366;28;20436;-77
2020/12/20 08:54:40;;;;;;;4.07;2.43;;;10.10;99.90;;;;;;4974378;28;20448;-77
2020/12/20 08:57:10;;;;;;;5.00;2.10;;;10.10;99.90;;;;;;4974793;28;20539;-77
2020/12/20 08:59:44;;;;;;;6.70;2.80;;;10.10;99.90;;;;;;4973637;28;20879;-77
2020/12/20 09:02:22;;;;;;;2.90;2.33;;;10.10;99.90;;;;;;4973042;28;20482;-77
2020/12/20 09:05:02;;;;;;;7.07;2.70;;;10.10;99.90;;;;;;4965852;28;20443;-77
2020/12/20 09:07:47;;;;;;;7.40;2.47;;;10.00;99.90;;;;;;4974449;28;20406;-77
2020/12/20 09:10:23;;;;;;;8.13;2.93;;;10.00;99.90;;;;;;4973751;28;20466;-77
2020/12/20 09:12:54;;;;;;;6.70;2.80;;;10.10;99.90;;;;;;4970463;28;20438;-76
2020/12/20 09:15:22;;;;;;;4.07;2.90;;;10.00;99.90;;;;;;4969176;28;21053;-77
2020/12/20 09:17:52;;;;;;;8.33;4.80;;;10.00;99.90;;;;;;4956557;28;20419;-78
2020/12/20 09:20:22;;;;;;;6.50;3.10;;;10.10;99.90;;;;;;4970536;28;20445;-78
2020/12/20 09:22:51;;;;;;;5.53;3.20;;;10.00;99.90;;;;;;4973229;28;20548;-78
2020/12/20 09:25:30;;;;;;;14.33;3.50;;;10.00;99.90;;;;;;4960293;28;20467;-77
2020/12/20 09:27:58;;;;;;;7.00;3.50;;;10.20;99.90;;;;;;4962991;28;20944;-76
2020/12/20 09:30:31;;;;;;;8.17;2.87;;;10.20;99.90;;;;;;4968940;28;20564;-77
2020/12/20 09:32:57;;;;;;;6.30;2.60;;;10.20;99.90;;;;;;4983122;28;20449;-77
2020/12/20 09:35:23;;;;;;;12.27;3.33;;;10.40;99.90;;;;;;4972170;28;20561;-77
2020/12/20 09:37:49;;;;;;;5.70;2.83;;;10.40;99.90;;;;;;4974148;28;20450;-77
2020/12/20 09:40:14;;;;;;;7.10;3.50;;;10.40;99.90;;;;;;4976036;28;20215;-77
2020/12/20 09:42:41;;;;;;;5.77;2.60;;;10.40;99.90;;;;;;4972284;28;20222;-77
2020/12/20 09:45:11;;;;;;;9.30;2.73;;;10.40;99.90;;;;;;4972205;28;20717;-77
2020/12/20 09:47:42;;;;;;;7.40;3.27;;;10.30;99.90;;;;;;4973806;28;20422;-77
2020/12/20 09:50:09;;;;;;;8.60;2.77;;;10.40;99.90;;;;;;4970806;28;20462;-77
2020/12/20 09:52:37;;;;;;;10.00;3.10;;;10.50;99.90;;;;;;4984023;28;20477;-77
2020/12/20 09:55:05;;;;;;;6.43;2.70;;;10.50;99.90;;;;;;4973220;28;20970;-77
2020/12/20 09:57:30;;;;;;;5.67;2.30;;;10.60;99.90;;;;;;4973332;28;20787;-77
2020/12/20 09:59:56;;;;;;;6.17;2.90;;;10.50;99.90;;;;;;4975803;28;20927;-76
2020/12/20 10:02:22;;;;;;;5.50;2.63;;;10.50;99.90;;;;;;4973054;28;20192;-78
2020/12/20 10:04:47;;;;;;;7.97;2.70;;;10.50;99.90;;;;;;4971092;28;20755;-77
2020/12/20 10:07:13;;;;;;;8.63;3.30;;;10.60;99.90;;;;;;4973853;28;20183;-77
2020/12/20 10:09:39;;;;;;;9.50;4.30;;;10.50;99.90;;;;;;4972979;28;20227;-77
2020/12/20 10:12:05;;;;;;;9.27;2.50;;;10.60;99.90;;;;;;4972970;28;20201;-77
2020/12/20 10:14:32;;;;;;;10.87;3.87;;;10.70;99.90;;;;;;4972742;28;20203;-77
2020/12/20 10:16:58;;;;;;;10.80;4.27;;;10.70;99.90;;;;;;4972995;28;20419;-77
2020/12/20 10:19:24;;;;;;;8.90;5.07;;;10.70;99.90;;;;;;4972660;28;20470;-77
2020/12/20 10:21:50;;;;;;;10.33;4.70;;;10.70;99.90;;;;;;4973398;28;20427;-77
2020/12/20 10:24:17;;;;;;;16.40;4.43;;;10.70;99.90;;;;;;4972382;28;20246;-77
2020/12/20 10:26:47;;;;;;;8.70;3.13;;;10.70;99.90;;;;;;4971119;28;20446;-77
2020/12/20 10:29:15;;;;;;;16.00;4.77;;;10.60;99.90;;;;;;4984827;28;20449;-77
2020/12/20 10:31:45;;;;;;;11.03;3.70;;;10.70;99.90;;;;;;4974051;28;20477;-78
2020/12/20 10:34:11;;;;;;;7.67;3.03;;;10.60;99.90;;;;;;4971543;28;20751;-78
2020/12/20 10:36:38;;;;;;;13.33;3.90;;;10.60;99.90;;;;;;4971730;28;20481;-78
2020/12/20 10:39:06;;;;;;;8.80;3.10;;;10.70;99.90;;;;;;4971356;28;20262;-77
2020/12/20 10:41:39;;;;;;;5.97;4.07;;;10.70;99.90;;;;;;4972194;28;20442;-78
2020/12/20 10:44:05;;;;;;;7.20;2.33;;;10.70;99.90;;;;;;4971655;28;20410;-78
2020/12/20 10:46:33;;;;;;;9.30;3.97;;;10.70;99.90;;;;;;4972764;28;20419;-77
2020/12/20 10:48:59;;;;;;;6.93;3.17;;;10.70;99.90;;;;;;4972465;28;20446;-77
2020/12/20 10:51:25;;;;;;;8.27;3.10;;;10.60;99.90;;;;;;4972329;28;20450;-77
2020/12/20 10:53:51;;;;;;;8.70;4.00;;;10.60;99.90;;;;;;4972635;28;20415;-77
2020/12/20 10:56:18;;;;;;;10.70;4.13;;;10.60;99.90;;;;;;4971532;28;20458;-78
2020/12/20 10:58:48;;;;;;;10.20;3.60;;;10.60;99.90;;;;;;4972331;28;20668;-78
2020/12/20 11:01:18;;;;;;;11.90;4.43;;;10.70;99.90;;;;;;4969315;28;20463;-78
2020/12/20 11:03:49;;;;;;;6.57;5.20;;;10.70;99.90;;;;;;4971938;28;20532;-78
2020/12/20 11:06:22;;;;;;;6.10;4.17;;;10.70;99.90;;;;;;4971415;28;20454;-78
2020/12/20 11:08:49;;;;;;;6.50;2.90;;;10.70;99.90;;;;;;4972028;28;20937;-78
2020/12/20 11:11:16;;;;;;;5.90;2.83;;;10.70;99.90;;;;;;4971132;28;20458;-78
2020/12/20 11:13:42;;;;;;;8.20;2.77;;;10.80;99.90;;;;;;4970427;28;20781;-78
2020/12/20 11:16:18;;;;;;;7.77;2.90;;;10.80;99.90;;;;;;4971414;28;20538;-76
2020/12/20 11:18:46;;;;;;;5.23;2.87;;;10.80;99.90;;;;;;4970969;28;20493;-77
2020/12/20 11:21:17;;;;;;;9.77;3.17;;;10.80;99.90;;;;;;4970380;28;20698;-77
2020/12/20 11:23:43;;;;;;;9.20;4.00;;;10.80;99.90;;;;;;4972095;28;20437;-77
2020/12/20 11:26:29;;;;;;;8.80;2.43;;;10.80;99.90;;;;;;4971798;28;20795;-77
2020/12/20 11:28:54;;;;;;;7.20;3.50;;;10.80;99.90;;;;;;4980691;28;20534;-77
2020/12/20 11:31:22;;;;;;;4.87;2.57;;;10.80;99.90;;;;;;4974460;28;20509;-77
2020/12/20 11:33:49;;;;;;;12.47;3.40;;;10.90;99.90;;;;;;4971186;28;20263;-77
2020/12/20 11:36:20;;;;;;;4.70;2.83;;;10.80;99.90;;;;;;4971682;28;20806;-77
2020/12/20 11:38:46;;;;;;;8.40;2.80;;;10.80;99.90;;;;;;4970744;28;20484;-78
2020/12/20 11:41:12;;;;;;;7.60;3.17;;;10.90;99.90;;;;;;4970866;28;20458;-78
2020/12/20 11:43:38;;;;;;;13.07;4.63;;;11.10;99.90;;;;;;4970197;28;20423;-77
2020/12/20 11:46:04;;;;;;;6.63;2.93;;;11.10;99.90;;;;;;4971022;28;20822;-78
2020/12/20 11:48:30;;;;;;;10.00;5.53;;;11.10;99.90;;;;;;4971542;28;20647;-78
2020/12/20 11:50:57;;;;;;;9.50;4.90;;;11.10;99.90;;;;;;4970958;28;20461;-78
2020/12/20 11:53:24;;;;;;;18.67;6.53;;;11.10;99.90;;;;;;4971420;28;20763;-78
2020/12/20 11:55:50;;;;;;;10.83;5.57;;;11.20;99.90;;;;;;4971052;28;20978;-77
2020/12/20 11:58:16;;;;;;;7.20;4.10;;;11.20;99.90;;;;;;4972260;28;20417;-77
2020/12/20 12:00:43;;;;;;;5.27;4.37;;;11.20;99.90;;;;;;4969857;28;20303;-77
2020/12/20 12:03:10;;;;;;;13.90;6.90;;;11.20;99.90;;;;;;4977415;28;20455;-78
2020/12/20 12:05:40;;;;;;;7.83;6.20;;;11.30;99.90;;;;;;4971108;28;20462;-78
2020/12/20 12:08:06;;;;;;;11.57;9.13;;;11.30;99.90;;;;;;4969992;28;20960;-78
2020/12/20 12:10:33;;;;;;;10.80;6.67;;;11.30;99.90;;;;;;4970743;28;20458;-78
2020/12/20 12:13:01;;;;;;;9.03;4.70;;;11.30;99.90;;;;;;4972306;28;20446;-78
2020/12/20 12:15:27;;;;;;;8.90;3.40;;;11.30;99.90;;;;;;4973145;28;20438;-78
2020/12/20 12:17:53;;;;;;;7.50;3.60;;;11.20;99.90;;;;;;4974467;28;20909;-78
2020/12/20 12:20:18;;;;;;;9.03;3.97;;;11.20;99.90;;;;;;4975283;28;20486;-76
2020/12/20 12:22:46;;;;;;;8.00;4.63;;;11.20;99.90;;;;;;4974822;28;20227;-77
2020/12/20 12:25:11;;;;;;;6.87;4.60;;;11.20;99.90;;;;;;4975218;28;20223;-77
2020/12/20 12:27:37;;;;;;;9.60;4.60;;;11.20;99.90;;;;;;4975106;28;20450;-78
2020/12/20 12:30:03;;;;;;;9.77;5.80;;;11.20;99.90;;;;;;4980417;28;20215;-78
2020/12/20 12:32:29;;;;;;;11.80;5.43;;;11.20;99.90;;;;;;4974609;28;20197;-78
2020/12/20 12:34:56;;;;;;;7.47;3.80;;;11.20;99.90;;;;;;4972154;28;20537;-77
2020/12/20 12:37:22;;;;;;;5.07;3.37;;;11.30;99.90;;;;;;4974885;28;20465;-78
2020/12/20 12:39:48;;;;;;;7.27;3.47;;;11.40;99.90;;;;;;4974256;28;20490;-78
2020/12/20 12:42:14;;;;;;;6.73;3.73;;;11.50;99.90;;;;;;4974365;28;20759;-78
2020/12/20 12:44:42;;;;;;;8.13;4.70;;;11.50;99.90;;;;;;4973880;28;20218;-78
2020/12/20 12:47:09;;;;;;;6.20;3.40;;;11.30;99.90;;;;;;4974195;28;20172;-78
2020/12/20 12:49:35;;;;;;;8.40;3.00;;;11.20;99.90;;;;;;4973797;28;20472;-77
2020/12/20 12:52:01;;;;;;;5.20;3.43;;;11.40;99.90;;;;;;4974115;28;20441;-78
2020/12/20 12:54:26;;;;;;;10.50;4.17;;;11.30;99.90;;;;;;4972776;28;20537;-78
2020/12/20 12:56:53;;;;;;;13.37;4.93;;;11.40;99.90;;;;;;4972964;28;20175;-77
2020/12/20 12:59:19;;;;;;;9.10;4.40;;;11.60;99.90;;;;;;4973915;28;20167;-78